sensor_id;sensor_type;location;lat;lon;timestamp;pressure;altitude;pressure_sealevel;temperature;humidity
79242;BME280;68670;48.720;9.118;2023-07-31T00:01:09;96936.25;;;14.51;71.67
79242;BME280;68670;48.720;9.118;2023-07-31T00:03:37;96941.16;;;14.44;73.03
79242;BME280;68670;48.720;9.118;2023-07-31T00:06:02;96944.91;;;14.33;74.44
79242;BME280;68670;48.720;9.118;2023-07-31T00:08:28;96937.19;;;14.35;72.96
79242;BME280;68670;48.720;9.118;2023-07-31T00:10:55;96937.84;;;14.42;72.13
79242;BME280;68670;48.720;9.118;2023-07-31T00:13:21;96933.66;;;14.39;71.74
79242;BME280;68670;48.720;9.118;2023-07-31T00:15:48;96940.06;;;14.45;71.48
79242;BME280;68670;48.720;9.118;2023-07-31T00:18:15;96954.88;;;14.39;72.15
79242;BME280;68670;48.720;9.118;2023-07-31T00:20:40;96954.25;;;14.32;72.06
79242;BME280;68670;48.720;9.118;2023-07-31T00:23:08;96946.00;;;14.32;72.12
79242;BME280;68670;48.720;9.118;2023-07-31T00:25:35;96938.03;;;14.35;71.85
79242;BME280;68670;48.720;9.118;2023-07-31T00:28:00;96937.72;;;14.32;73.32
79242;BME280;68670;48.720;9.118;2023-07-31T00:30:28;96936.09;;;14.36;72.19
79242;BME280;68670;48.720;9.118;2023-07-31T00:32:56;96933.34;;;14.36;71.97
79242;BME280;68670;48.720;9.118;2023-07-31T00:35:21;96935.56;;;14.39;71.64
79242;BME280;68670;48.720;9.118;2023-07-31T00:37:46;96937.19;;;14.35;71.89
79242;BME280;68670;48.720;9.118;2023-07-31T00:40:14;96940.53;;;14.37;71.63
79242;BME280;68670;48.720;9.118;2023-07-31T00:42:39;96926.44;;;14.33;72.79
79242;BME280;68670;48.720;9.118;2023-07-31T00:45:07;96932.06;;;14.43;71.71
79242;BME280;68670;48.720;9.118;2023-07-31T00:47:37;96928.97;;;14.40;71.97
79242;BME280;68670;48.720;9.118;2023-07-31T00:50:03;96918.47;;;14.37;72.30
79242;BME280;68670;48.720;9.118;2023-07-31T00:52:33;96922.31;;;14.36;72.27
79242;BME280;68670;48.720;9.118;2023-07-31T00:54:58;96919.00;;;14.34;72.30
79242;BME280;68670;48.720;9.118;2023-07-31T00:57:24;96915.78;;;14.42;71.86
79242;BME280;68670;48.720;9.118;2023-07-31T00:59:49;96917.59;;;14.26;72.19
79242;BME280;68670;48.720;9.118;2023-07-31T01:02:15;96920.38;;;14.31;71.85
79242;BME280;68670;48.720;9.118;2023-07-31T01:04:42;96924.63;;;14.44;71.56
79242;BME280;68670;48.720;9.118;2023-07-31T01:07:22;96919.56;;;14.36;71.95
79242;BME280;68670;48.720;9.118;2023-07-31T01:10:15;96921.19;;;14.32;71.93
79242;BME280;68670;48.720;9.118;2023-07-31T01:12:47;96918.72;;;14.30;72.08
79242;BME280;68670;48.720;9.118;2023-07-31T01:15:17;96921.19;;;14.32;72.09
79242;BME280;68670;48.720;9.118;2023-07-31T01:17:43;96917.34;;;14.33;72.46
79242;BME280;68670;48.720;9.118;2023-07-31T01:20:15;96917.03;;;14.24;72.27
79242;BME280;68670;48.720;9.118;2023-07-31T01:22:58;96915.41;;;14.28;72.20
79242;BME280;68670;48.720;9.118;2023-07-31T01:28:04;96906.75;;;14.09;73.33
79242;BME280;68670;48.720;9.118;2023-07-31T01:30:34;96910.59;;;14.08;73.59
79242;BME280;68670;48.720;9.118;2023-07-31T01:33:05;96902.28;;;14.03;74.52
79242;BME280;68670;48.720;9.118;2023-07-31T01:35:34;96907.22;;;13.96;74.34
79242;BME280;68670;48.720;9.118;2023-07-31T01:37:59;96909.09;;;13.91;74.33
79242;BME280;68670;48.720;9.118;2023-07-31T01:40:24;96903.91;;;13.94;74.99
79242;BME280;68670;48.720;9.118;2023-07-31T01:42:52;96910.50;;;13.98;74.11
79242;BME280;68670;48.720;9.118;2023-07-31T01:45:17;96902.59;;;14.07;73.75
79242;BME280;68670;48.720;9.118;2023-07-31T01:47:42;96890.22;;;14.09;73.43
79242;BME280;68670;48.720;9.118;2023-07-31T01:50:11;96891.00;;;14.05;73.83
79242;BME280;68670;48.720;9.118;2023-07-31T01:52:36;96896.75;;;13.98;74.19
79242;BME280;68670;48.720;9.118;2023-07-31T01:55:05;96896.16;;;13.91;75.06
79242;BME280;68670;48.720;9.118;2023-07-31T01:57:33;96890.31;;;13.83;75.08
79242;BME280;68670;48.720;9.118;2023-07-31T02:00:01;96889.47;;;13.82;75.51
79242;BME280;68670;48.720;9.118;2023-07-31T02:02:28;96885.63;;;13.83;75.03
79242;BME280;68670;48.720;9.118;2023-07-31T02:04:56;96890.53;;;13.76;75.81
79242;BME280;68670;48.720;9.118;2023-07-31T02:07:21;96884.44;;;13.74;75.86
79242;BME280;68670;48.720;9.118;2023-07-31T02:09:46;96882.75;;;13.68;76.29
79242;BME280;68670;48.720;9.118;2023-07-31T02:12:14;96876.66;;;13.61;77.52
79242;BME280;68670;48.720;9.118;2023-07-31T02:14:40;96875.53;;;13.57;77.36
79242;BME280;68670;48.720;9.118;2023-07-31T02:17:08;96870.00;;;13.57;77.31
79242;BME280;68670;48.720;9.118;2023-07-31T02:19:36;96863.38;;;13.53;77.53
79242;BME280;68670;48.720;9.118;2023-07-31T02:22:01;96866.69;;;13.55;77.04
79242;BME280;68670;48.720;9.118;2023-07-31T02:24:29;96861.03;;;13.71;75.67
79242;BME280;68670;48.720;9.118;2023-07-31T02:26:54;96852.47;;;13.63;76.66
79242;BME280;68670;48.720;9.118;2023-07-31T02:29:27;96851.31;;;13.59;76.55
79242;BME280;68670;48.720;9.118;2023-07-31T02:31:52;96853.41;;;13.47;77.10
79242;BME280;68670;48.720;9.118;2023-07-31T02:34:17;96856.16;;;13.47;77.10
79242;BME280;68670;48.720;9.118;2023-07-31T02:36:45;96853.94;;;13.43;77.27
79242;BME280;68670;48.720;9.118;2023-07-31T02:39:10;96848.94;;;13.40;77.93
79242;BME280;68670;48.720;9.118;2023-07-31T02:41:38;96854.41;;;13.35;78.58
79242;BME280;68670;48.720;9.118;2023-07-31T02:44:03;96851.38;;;13.32;79.34
79242;BME280;68670;48.720;9.118;2023-07-31T02:46:31;96854.91;;;13.27;78.31
79242;BME280;68670;48.720;9.118;2023-07-31T02:48:59;96844.38;;;13.19;79.82
79242;BME280;68670;48.720;9.118;2023-07-31T02:51:24;96839.13;;;13.18;79.07
79242;BME280;68670;48.720;9.118;2023-07-31T02:53:54;96846.34;;;13.24;78.47
79242;BME280;68670;48.720;9.118;2023-07-31T02:56:19;96841.72;;;13.29;77.64
79242;BME280;68670;48.720;9.118;2023-07-31T02:58:47;96840.09;;;13.33;77.73
79242;BME280;68670;48.720;9.118;2023-07-31T03:01:12;96835.16;;;13.35;77.62
79242;BME280;68670;48.720;9.118;2023-07-31T03:03:38;96832.38;;;13.30;77.63
79242;BME280;68670;48.720;9.118;2023-07-31T03:06:03;96830.16;;;13.27;77.55
79242;BME280;68670;48.720;9.118;2023-07-31T03:08:28;96837.88;;;13.30;77.37
79242;BME280;68670;48.720;9.118;2023-07-31T03:10:54;96833.78;;;13.38;76.95
79242;BME280;68670;48.720;9.118;2023-07-31T03:13:22;96839.13;;;13.50;75.99
79242;BME280;68670;48.720;9.118;2023-07-31T03:15:47;96840.75;;;13.45;75.98
79242;BME280;68670;48.720;9.118;2023-07-31T03:18:15;96837.50;;;13.54;75.75
79242;BME280;68670;48.720;9.118;2023-07-31T03:20:43;96842.50;;;13.57;75.34
79242;BME280;68670;48.720;9.118;2023-07-31T03:23:11;96847.91;;;13.47;75.37
79242;BME280;68670;48.720;9.118;2023-07-31T03:25:41;96844.91;;;13.48;75.70
79242;BME280;68670;48.720;9.118;2023-07-31T03:28:09;96842.19;;;13.53;75.57
79242;BME280;68670;48.720;9.118;2023-07-31T03:30:37;96839.38;;;13.48;75.83
79242;BME280;68670;48.720;9.118;2023-07-31T03:33:03;96830.47;;;13.31;76.71
79242;BME280;68670;48.720;9.118;2023-07-31T03:35:30;96842.84;;;13.33;76.46
79242;BME280;68670;48.720;9.118;2023-07-31T03:38:00;96830.22;;;13.37;76.13
79242;BME280;68670;48.720;9.118;2023-07-31T03:40:26;96838.47;;;13.37;75.91
79242;BME280;68670;48.720;9.118;2023-07-31T03:42:53;96835.25;;;13.45;75.52
79242;BME280;68670;48.720;9.118;2023-07-31T03:45:19;96843.22;;;13.47;75.52
79242;BME280;68670;48.720;9.118;2023-07-31T03:47:47;96841.34;;;13.53;74.90
79242;BME280;68670;48.720;9.118;2023-07-31T03:50:12;96840.22;;;13.49;75.34
79242;BME280;68670;48.720;9.118;2023-07-31T03:52:37;96841.88;;;13.50;75.52
79242;BME280;68670;48.720;9.118;2023-07-31T03:55:03;96846.34;;;13.56;74.47
79242;BME280;68670;48.720;9.118;2023-07-31T03:57:28;96847.47;;;13.60;74.72
79242;BME280;68670;48.720;9.118;2023-07-31T03:59:53;96849.44;;;13.64;74.14
79242;BME280;68670;48.720;9.118;2023-07-31T04:02:21;96851.38;;;13.69;74.23
79242;BME280;68670;48.720;9.118;2023-07-31T04:04:46;96850.31;;;13.75;73.83
79242;BME280;68670;48.720;9.118;2023-07-31T04:07:12;96844.06;;;13.85;73.23
79242;BME280;68670;48.720;9.118;2023-07-31T04:09:39;96841.91;;;13.92;72.65
79242;BME280;68670;48.720;9.118;2023-07-31T04:12:07;96842.50;;;13.99;72.70
79242;BME280;68670;48.720;9.118;2023-07-31T04:14:32;96843.13;;;14.11;72.09
79242;BME280;68670;48.720;9.118;2023-07-31T04:16:58;96835.16;;;14.15;71.79
79242;BME280;68670;48.720;9.118;2023-07-31T04:19:25;96837.44;;;14.28;71.54
79242;BME280;68670;48.720;9.118;2023-07-31T04:21:51;96831.97;;;14.38;70.64
79242;BME280;68670;48.720;9.118;2023-07-31T04:24:16;96823.66;;;14.33;70.91
79242;BME280;68670;48.720;9.118;2023-07-31T04:26:47;96820.94;;;14.38;71.14
79242;BME280;68670;48.720;9.118;2023-07-31T04:29:12;96817.09;;;14.39;71.31
79242;BME280;68670;48.720;9.118;2023-07-31T04:31:37;96817.44;;;14.48;70.50
79242;BME280;68670;48.720;9.118;2023-07-31T04:34:03;96817.16;;;14.49;70.47
79242;BME280;68670;48.720;9.118;2023-07-31T04:36:28;96826.25;;;14.44;71.42
79242;BME280;68670;48.720;9.118;2023-07-31T04:38:54;96823.75;;;14.43;71.28
79242;BME280;68670;48.720;9.118;2023-07-31T04:41:19;96830.44;;;14.62;70.29
79242;BME280;68670;48.720;9.118;2023-07-31T04:43:44;96829.91;;;14.60;70.48
79242;BME280;68670;48.720;9.118;2023-07-31T04:46:09;96828.53;;;14.68;70.14
79242;BME280;68670;48.720;9.118;2023-07-31T04:48:35;96830.75;;;14.71;70.20
79242;BME280;68670;48.720;9.118;2023-07-31T04:51:00;96832.44;;;14.82;69.58
79242;BME280;68670;48.720;9.118;2023-07-31T04:53:26;96824.44;;;14.81;69.95
79242;BME280;68670;48.720;9.118;2023-07-31T04:55:51;96815.06;;;14.82;70.33
79242;BME280;68670;48.720;9.118;2023-07-31T04:58:18;96824.19;;;14.87;69.65
79242;BME280;68670;48.720;9.118;2023-07-31T05:00:44;96822.81;;;15.00;68.98
79242;BME280;68670;48.720;9.118;2023-07-31T05:03:10;96815.63;;;14.84;69.63
79242;BME280;68670;48.720;9.118;2023-07-31T05:05:37;96815.63;;;14.89;69.40
79242;BME280;68670;48.720;9.118;2023-07-31T05:08:03;96817.28;;;14.90;69.69
79242;BME280;68670;48.720;9.118;2023-07-31T05:10:30;96829.13;;;14.85;70.24
79242;BME280;68670;48.720;9.118;2023-07-31T05:12:56;96820.06;;;15.00;69.05
79242;BME280;68670;48.720;9.118;2023-07-31T05:15:23;96820.03;;;14.95;69.68
79242;BME280;68670;48.720;9.118;2023-07-31T05:17:51;96818.97;;;14.91;69.62
79242;BME280;68670;48.720;9.118;2023-07-31T05:20:19;96820.03;;;14.95;69.77
79242;BME280;68670;48.720;9.118;2023-07-31T05:22:47;96821.16;;;14.99;69.37
79242;BME280;68670;48.720;9.118;2023-07-31T05:25:12;96825.00;;;14.98;69.53
79242;BME280;68670;48.720;9.118;2023-07-31T05:27:40;96826.97;;;15.02;69.38
79242;BME280;68670;48.720;9.118;2023-07-31T05:30:06;96826.66;;;14.99;69.67
79242;BME280;68670;48.720;9.118;2023-07-31T05:32:32;96829.97;;;14.91;70.51
79242;BME280;68670;48.720;9.118;2023-07-31T05:34:57;96819.50;;;14.88;71.77
79242;BME280;68670;48.720;9.118;2023-07-31T05:37:23;96824.47;;;14.91;71.35
79242;BME280;68670;48.720;9.118;2023-07-31T05:39:49;96830.56;;;15.08;70.25
79242;BME280;68670;48.720;9.118;2023-07-31T05:42:14;96835.56;;;15.26;70.31
79242;BME280;68670;48.720;9.118;2023-07-31T05:44:40;96829.22;;;15.41;68.91
79242;BME280;68670;48.720;9.118;2023-07-31T05:47:10;96835.28;;;15.38;71.08
79242;BME280;68670;48.720;9.118;2023-07-31T05:49:35;96824.53;;;15.46;68.23
79242;BME280;68670;48.720;9.118;2023-07-31T05:52:00;96831.72;;;15.53;68.31
79242;BME280;68670;48.720;9.118;2023-07-31T05:54:28;96815.69;;;15.60;68.26
79242;BME280;68670;48.720;9.118;2023-07-31T05:56:53;96820.94;;;15.66;68.41
79242;BME280;68670;48.720;9.118;2023-07-31T05:59:21;96812.94;;;15.75;67.74
79242;BME280;68670;48.720;9.118;2023-07-31T06:01:46;96809.84;;;15.97;66.69
79242;BME280;68670;48.720;9.118;2023-07-31T06:04:11;96808.50;;;15.89;66.16
79242;BME280;68670;48.720;9.118;2023-07-31T06:06:37;96813.44;;;16.02;65.25
79242;BME280;68670;48.720;9.118;2023-07-31T06:09:02;96808.19;;;16.06;66.60
79242;BME280;68670;48.720;9.118;2023-07-31T06:11:28;96805.69;;;16.09;65.50
79242;BME280;68670;48.720;9.118;2023-07-31T06:13:56;96808.47;;;16.09;64.88
79242;BME280;68670;48.720;9.118;2023-07-31T06:16:26;96811.13;;;16.35;65.03
79242;BME280;68670;48.720;9.118;2023-07-31T06:18:52;96799.78;;;16.41;63.64
79242;BME280;68670;48.720;9.118;2023-07-31T06:21:17;96814.44;;;16.37;63.90
79242;BME280;68670;48.720;9.118;2023-07-31T06:23:43;96807.25;;;16.41;63.47
79242;BME280;68670;48.720;9.118;2023-07-31T06:26:08;96816.09;;;16.38;63.43
79242;BME280;68670;48.720;9.118;2023-07-31T06:28:34;96802.56;;;16.36;63.47
79242;BME280;68670;48.720;9.118;2023-07-31T06:30:59;96805.03;;;16.43;63.22
79242;BME280;68670;48.720;9.118;2023-07-31T06:33:28;96814.41;;;16.47;63.52
79242;BME280;68670;48.720;9.118;2023-07-31T06:35:53;96813.03;;;16.50;64.48
79242;BME280;68670;48.720;9.118;2023-07-31T06:38:23;96816.28;;;16.62;63.52
79242;BME280;68670;48.720;9.118;2023-07-31T06:40:49;96815.16;;;16.63;63.36
79242;BME280;68670;48.720;9.118;2023-07-31T06:43:14;96815.69;;;16.75;62.25
79242;BME280;68670;48.720;9.118;2023-07-31T06:45:40;96824.28;;;16.73;62.71
79242;BME280;68670;48.720;9.118;2023-07-31T06:48:05;96814.84;;;16.79;62.82
79242;BME280;68670;48.720;9.118;2023-07-31T06:50:33;96813.09;;;16.94;61.88
79242;BME280;68670;48.720;9.118;2023-07-31T06:52:58;96818.06;;;16.97;62.83
79242;BME280;68670;48.720;9.118;2023-07-31T06:55:26;96829.94;;;17.02;61.73
79242;BME280;68670;48.720;9.118;2023-07-31T06:57:53;96825.75;;;17.05;61.04
79242;BME280;68670;48.720;9.118;2023-07-31T07:00:22;96825.75;;;17.10;61.77
79242;BME280;68670;48.720;9.118;2023-07-31T07:02:50;96826.63;;;17.39;60.88
79242;BME280;68670;48.720;9.118;2023-07-31T07:05:16;96820.06;;;17.30;60.61
79242;BME280;68670;48.720;9.118;2023-07-31T07:07:42;96829.41;;;17.39;61.30
79242;BME280;68670;48.720;9.118;2023-07-31T07:10:08;96826.06;;;17.42;61.56
79242;BME280;68670;48.720;9.118;2023-07-31T07:12:34;96818.19;;;17.55;60.77
79242;BME280;68670;48.720;9.118;2023-07-31T07:15:00;96821.47;;;17.67;60.55
79242;BME280;68670;48.720;9.118;2023-07-31T07:17:29;96816.41;;;17.74;60.51
79242;BME280;68670;48.720;9.118;2023-07-31T07:19:58;96822.91;;;17.88;60.17
79242;BME280;68670;48.720;9.118;2023-07-31T07:22:24;96814.56;;;17.93;60.69
79242;BME280;68670;48.720;9.118;2023-07-31T07:24:50;96817.09;;;18.19;58.20
79242;BME280;68670;48.720;9.118;2023-07-31T07:27:16;96810.03;;;18.02;57.68
79242;BME280;68670;48.720;9.118;2023-07-31T07:29:41;96814.56;;;17.93;57.75
79242;BME280;68670;48.720;9.118;2023-07-31T07:32:07;96804.50;;;17.73;57.92
79242;BME280;68670;48.720;9.118;2023-07-31T07:34:32;96810.00;;;17.78;58.15
79242;BME280;68670;48.720;9.118;2023-07-31T07:37:00;96803.72;;;17.68;59.00
79242;BME280;68670;48.720;9.118;2023-07-31T07:39:25;96804.00;;;17.66;59.15
79242;BME280;68670;48.720;9.118;2023-07-31T07:41:50;96804.19;;;17.80;58.51
79242;BME280;68670;48.720;9.118;2023-07-31T07:44:16;96810.38;;;17.62;58.81
79242;BME280;68670;48.720;9.118;2023-07-31T07:46:41;96810.38;;;17.67;59.37
79242;BME280;68670;48.720;9.118;2023-07-31T07:49:06;96808.16;;;17.69;60.26
79242;BME280;68670;48.720;9.118;2023-07-31T07:51:34;96805.25;;;17.84;59.31
79242;BME280;68670;48.720;9.118;2023-07-31T07:54:00;96803.00;;;17.86;59.75
79242;BME280;68670;48.720;9.118;2023-07-31T07:56:28;96790.69;;;17.97;61.55
79242;BME280;68670;48.720;9.118;2023-07-31T07:58:54;96794.19;;;18.08;59.17
79242;BME280;68670;48.720;9.118;2023-07-31T08:01:21;96798.72;;;18.23;58.72
79242;BME280;68670;48.720;9.118;2023-07-31T08:03:47;96793.91;;;18.33;56.41
79242;BME280;68670;48.720;9.118;2023-07-31T08:06:13;96786.28;;;18.44;56.11
79242;BME280;68670;48.720;9.118;2023-07-31T08:08:38;96790.66;;;18.50;56.14
79242;BME280;68670;48.720;9.118;2023-07-31T08:11:06;96793.34;;;18.55;57.43
79242;BME280;68670;48.720;9.118;2023-07-31T08:13:31;96782.75;;;18.62;57.64
79242;BME280;68670;48.720;9.118;2023-07-31T08:16:01;96786.00;;;18.69;55.47
79242;BME280;68670;48.720;9.118;2023-07-31T08:18:27;96785.53;;;18.62;53.89
79242;BME280;68670;48.720;9.118;2023-07-31T08:20:52;96783.91;;;18.56;55.81
79242;BME280;68670;48.720;9.118;2023-07-31T08:23:20;96784.88;;;18.70;55.75
79242;BME280;68670;48.720;9.118;2023-07-31T08:25:45;96779.94;;;18.86;56.01
79242;BME280;68670;48.720;9.118;2023-07-31T08:28:11;96776.94;;;18.83;54.27
79242;BME280;68670;48.720;9.118;2023-07-31T08:30:38;96771.69;;;19.00;54.55
79242;BME280;68670;48.720;9.118;2023-07-31T08:33:04;96774.97;;;19.39;52.87
79242;BME280;68670;48.720;9.118;2023-07-31T08:35:29;96771.97;;;19.55;52.36
79242;BME280;68670;48.720;9.118;2023-07-31T08:37:57;96771.41;;;19.85;52.02
79242;BME280;68670;48.720;9.118;2023-07-31T08:40:24;96768.13;;;19.83;51.69
79242;BME280;68670;48.720;9.118;2023-07-31T08:42:54;96771.19;;;19.68;51.00
79242;BME280;68670;48.720;9.118;2023-07-31T08:45:22;96760.38;;;19.66;51.47
79242;BME280;68670;48.720;9.118;2023-07-31T08:47:51;96749.09;;;19.90;51.45
79242;BME280;68670;48.720;9.118;2023-07-31T08:50:19;96749.63;;;20.20;50.52
79242;BME280;68670;48.720;9.118;2023-07-31T08:52:49;96755.19;;;20.20;50.65
79242;BME280;68670;48.720;9.118;2023-07-31T08:55:15;96754.16;;;20.16;50.97
79242;BME280;68670;48.720;9.118;2023-07-31T08:57:42;96752.50;;;20.14;51.20
79242;BME280;68670;48.720;9.118;2023-07-31T09:00:10;96760.56;;;20.30;51.04
79242;BME280;68670;48.720;9.118;2023-07-31T09:02:59;96759.44;;;20.31;50.06
79242;BME280;68670;48.720;9.118;2023-07-31T09:05:28;96761.00;;;20.64;50.00
79242;BME280;68670;48.720;9.118;2023-07-31T09:07:55;96748.63;;;20.70;49.19
79242;BME280;68670;48.720;9.118;2023-07-31T09:10:22;96739.66;;;20.73;49.39
79242;BME280;68670;48.720;9.118;2023-07-31T09:12:52;96737.19;;;21.08;49.56
79242;BME280;68670;48.720;9.118;2023-07-31T09:15:18;96728.53;;;20.73;48.59
79242;BME280;68670;48.720;9.118;2023-07-31T09:17:46;96737.59;;;20.65;49.13
79242;BME280;68670;48.720;9.118;2023-07-31T09:20:19;96728.22;;;20.34;49.53
79242;BME280;68670;48.720;9.118;2023-07-31T09:22:48;96726.88;;;20.18;51.41
79242;BME280;68670;48.720;9.118;2023-07-31T09:25:24;96743.47;;;20.23;51.42
79242;BME280;68670;48.720;9.118;2023-07-31T09:28:00;96739.63;;;19.91;52.60
79242;BME280;68670;48.720;9.118;2023-07-31T09:30:26;96737.28;;;19.98;52.27
79242;BME280;68670;48.720;9.118;2023-07-31T09:33:04;96743.41;;;19.68;51.76
79242;BME280;68670;48.720;9.118;2023-07-31T09:35:34;96733.38;;;19.53;52.76
79242;BME280;68670;48.720;9.118;2023-07-31T09:38:07;96746.00;;;19.45;53.57
79242;BME280;68670;48.720;9.118;2023-07-31T09:40:34;96736.31;;;19.43;52.73
79242;BME280;68670;48.720;9.118;2023-07-31T09:43:04;96720.69;;;19.47;53.30
79242;BME280;68670;48.720;9.118;2023-07-31T09:45:35;96731.41;;;19.54;53.32
79242;BME280;68670;48.720;9.118;2023-07-31T09:48:03;96719.94;;;19.74;51.12
79242;BME280;68670;48.720;9.118;2023-07-31T09:50:31;96698.34;;;19.98;50.02
79242;BME280;68670;48.720;9.118;2023-07-31T09:52:59;96697.94;;;20.19;50.58
79242;BME280;68670;48.720;9.118;2023-07-31T09:55:27;96694.84;;;20.34;50.70
79242;BME280;68670;48.720;9.118;2023-07-31T09:57:56;96686.38;;;20.53;49.12
79242;BME280;68670;48.720;9.118;2023-07-31T10:00:23;96686.19;;;20.22;49.87
79242;BME280;68670;48.720;9.118;2023-07-31T10:02:50;96690.09;;;20.48;49.98
79242;BME280;68670;48.720;9.118;2023-07-31T10:05:16;96685.84;;;21.00;47.79
79242;BME280;68670;48.720;9.118;2023-07-31T10:07:48;96684.06;;;21.40;48.59
79242;BME280;68670;48.720;9.118;2023-07-31T10:10:16;96662.03;;;21.92;50.34
79242;BME280;68670;48.720;9.118;2023-07-31T10:12:43;96659.50;;;22.13;47.04
79242;BME280;68670;48.720;9.118;2023-07-31T10:15:09;96661.97;;;22.89;44.44
79242;BME280;68670;48.720;9.118;2023-07-31T10:17:38;96665.41;;;23.11;42.15
79242;BME280;68670;48.720;9.118;2023-07-31T10:20:06;96664.28;;;23.38;42.57
79242;BME280;68670;48.720;9.118;2023-07-31T10:22:32;96661.31;;;22.92;43.53
79242;BME280;68670;48.720;9.118;2023-07-31T10:24:59;96660.25;;;22.53;43.92
79242;BME280;68670;48.720;9.118;2023-07-31T10:27:25;96656.13;;;22.42;43.90
79242;BME280;68670;48.720;9.118;2023-07-31T10:29:57;96665.75;;;23.10;44.21
79242;BME280;68670;48.720;9.118;2023-07-31T10:32:24;96660.44;;;23.43;41.91
79242;BME280;68670;48.720;9.118;2023-07-31T10:34:51;96658.03;;;23.24;42.36
79242;BME280;68670;48.720;9.118;2023-07-31T10:37:28;96645.53;;;22.70;43.65
79242;BME280;68670;48.720;9.118;2023-07-31T10:40:03;96650.91;;;22.75;44.50
79242;BME280;68670;48.720;9.118;2023-07-31T10:42:32;96643.41;;;22.93;43.05
79242;BME280;68670;48.720;9.118;2023-07-31T10:45:03;96639.28;;;23.16;41.92
79242;BME280;68670;48.720;9.118;2023-07-31T10:47:37;96651.13;;;22.78;42.26
79242;BME280;68670;48.720;9.118;2023-07-31T10:50:19;96650.63;;;22.11;45.01
79242;BME280;68670;48.720;9.118;2023-07-31T10:52:53;96638.81;;;22.05;44.44
79242;BME280;68670;48.720;9.118;2023-07-31T10:58:05;96646.72;;;23.03;42.19
79242;BME280;68670;48.720;9.118;2023-07-31T11:00:31;96645.19;;;22.71;42.56
79242;BME280;68670;48.720;9.118;2023-07-31T11:03:04;96624.13;;;22.48;43.13
79242;BME280;68670;48.720;9.118;2023-07-31T11:05:50;96633.34;;;22.57;43.52
79242;BME280;68670;48.720;9.118;2023-07-31T11:08:17;96635.94;;;22.45;44.14
79242;BME280;68670;48.720;9.118;2023-07-31T11:10:45;96630.13;;;22.07;45.13
79242;BME280;68670;48.720;9.118;2023-07-31T11:13:10;96629.16;;;22.20;45.04
79242;BME280;68670;48.720;9.118;2023-07-31T11:15:36;96628.81;;;22.04;45.25
79242;BME280;68670;48.720;9.118;2023-07-31T11:18:04;96636.44;;;21.90;45.58
79242;BME280;68670;48.720;9.118;2023-07-31T11:20:32;96627.78;;;21.61;46.04
79242;BME280;68670;48.720;9.118;2023-07-31T11:23:09;96636.06;;;21.52;46.78
79242;BME280;68670;48.720;9.118;2023-07-31T11:25:38;96639.56;;;21.58;47.05
79242;BME280;68670;48.720;9.118;2023-07-31T11:28:09;96642.47;;;21.53;46.88
79242;BME280;68670;48.720;9.118;2023-07-31T11:30:37;96632.97;;;21.23;46.99
79242;BME280;68670;48.720;9.118;2023-07-31T11:33:06;96634.19;;;21.17;47.77
79242;BME280;68670;48.720;9.118;2023-07-31T11:35:33;96634.34;;;21.11;48.19
79242;BME280;68670;48.720;9.118;2023-07-31T11:38:01;96631.72;;;21.15;47.55
79242;BME280;68670;48.720;9.118;2023-07-31T11:40:28;96635.44;;;21.24;48.39
79242;BME280;68670;48.720;9.118;2023-07-31T11:42:57;96633.03;;;21.31;47.83
79242;BME280;68670;48.720;9.118;2023-07-31T11:45:26;96630.03;;;21.28;47.99
79242;BME280;68670;48.720;9.118;2023-07-31T11:47:54;96624.09;;;21.21;48.56
79242;BME280;68670;48.720;9.118;2023-07-31T11:50:24;96612.38;;;21.10;49.23
79242;BME280;68670;48.720;9.118;2023-07-31T11:53:00;96621.50;;;21.02;48.86
79242;BME280;68670;48.720;9.118;2023-07-31T11:55:30;96609.34;;;20.98;49.48
79242;BME280;68670;48.720;9.118;2023-07-31T11:57:57;96597.56;;;21.01;49.55
79242;BME280;68670;48.720;9.118;2023-07-31T12:00:25;96594.28;;;20.99;49.56
79242;BME280;68670;48.720;9.118;2023-07-31T12:02:52;96586.31;;;21.06;49.78
79242;BME280;68670;48.720;9.118;2023-07-31T12:05:20;96580.47;;;20.94;49.30
79242;BME280;68670;48.720;9.118;2023-07-31T12:07:51;96574.22;;;20.88;50.39
79242;BME280;68670;48.720;9.118;2023-07-31T12:10:30;96581.50;;;20.98;50.79
79242;BME280;68670;48.720;9.118;2023-07-31T12:15:39;96567.94;;;21.27;50.14
79242;BME280;68670;48.720;9.118;2023-07-31T12:18:14;96570.72;;;21.27;48.96
79242;BME280;68670;48.720;9.118;2023-07-31T12:20:44;96577.94;;;21.28;49.62
79242;BME280;68670;48.720;9.118;2023-07-31T12:25:42;96577.81;;;21.33;49.51
79242;BME280;68670;48.720;9.118;2023-07-31T12:28:08;96564.72;;;21.11;49.02
79242;BME280;68670;48.720;9.118;2023-07-31T12:30:38;96576.50;;;21.08;49.51
79242;BME280;68670;48.720;9.118;2023-07-31T12:33:14;96574.47;;;21.00;49.50
79242;BME280;68670;48.720;9.118;2023-07-31T12:35:46;96560.09;;;20.85;50.57
79242;BME280;68670;48.720;9.118;2023-07-31T12:38:13;96544.41;;;20.89;50.42
79242;BME280;68670;48.720;9.118;2023-07-31T12:40:41;96562.44;;;20.91;50.83
79242;BME280;68670;48.720;9.118;2023-07-31T12:43:08;96550.41;;;20.82;50.54
79242;BME280;68670;48.720;9.118;2023-07-31T12:45:34;96544.91;;;20.91;49.71
79242;BME280;68670;48.720;9.118;2023-07-31T12:48:02;96546.31;;;20.79;50.68
79242;BME280;68670;48.720;9.118;2023-07-31T12:50:27;96542.88;;;20.83;49.57
79242;BME280;68670;48.720;9.118;2023-07-31T12:52:53;96542.75;;;20.88;49.83
79242;BME280;68670;48.720;9.118;2023-07-31T12:55:20;96534.41;;;21.10;50.66
79242;BME280;68670;48.720;9.118;2023-07-31T12:57:48;96531.13;;;21.39;48.94
79242;BME280;68670;48.720;9.118;2023-07-31T13:00:14;96522.75;;;21.87;48.07
79242;BME280;68670;48.720;9.118;2023-07-31T13:02:39;96515.75;;;22.16;49.90
79242;BME280;68670;48.720;9.118;2023-07-31T13:05:05;96504.44;;;22.21;48.85
79242;BME280;68670;48.720;9.118;2023-07-31T13:07:30;96508.72;;;22.35;47.06
79242;BME280;68670;48.720;9.118;2023-07-31T13:09:56;96513.13;;;22.45;47.00
79242;BME280;68670;48.720;9.118;2023-07-31T13:12:21;96508.38;;;22.71;46.71